Time;durP1;ratioP1;P1;durP2;ratioP2;P2;SDS_P1;SDS_P2;PMS_P1;PMS_P2;Temp;Humidity;BMP_temperature;BMP_pressure;BME280_temperature;BME280_humidity;BME280_pressure;Samples;Min_cycle;Max_cycle;Signal;HPM_P1;HPM_P2
2021/12/27 00:01:15;;;;;;;23.45;15.02;;;;;;;;;;5094008;28;20065;-28
2021/12/27 00:03:49;;;;;;;21.13;15.07;;;;;;;;;;5108876;28;20076;-33
2021/12/27 00:06:16;;;;;;;22.42;15.40;;;;;;;;;;5109479;28;20054;-30
2021/12/27 00:08:43;;;;;;;22.98;15.50;;;;;;;;;;5108316;28;20400;-31
2021/12/27 00:11:10;;;;;;;23.63;15.60;;;;;;;;;;5106789;28;20039;-31
2021/12/27 00:13:42;;;;;;;25.13;16.40;;;;;;;;;;5096071;28;20062;-31
2021/12/27 00:16:08;;;;;;;28.25;17.13;;;;;;;;;;5109451;28;20394;-34
2021/12/27 00:18:37;;;;;;;28.58;16.45;;;;;;;;;;5094718;28;20115;-36
2021/12/27 00:21:04;;;;;;;22.58;15.43;;;;;;;;;;5089017;28;20144;-33
2021/12/27 00:23:30;;;;;;;24.02;15.35;;;;;;;;;;5101915;28;20040;-30
2021/12/27 00:25:56;;;;;;;28.55;16.60;;;;;;;;;;5110017;28;20362;-30
2021/12/27 00:28:30;;;;;;;26.88;16.48;;;;;;;;;;5098509;28;20252;-33
2021/12/27 00:30:56;;;;;;;23.27;15.07;;;;;;;;;;5089323;28;20059;-29
2021/12/27 00:33:22;;;;;;;23.00;15.40;;;;;;;;;;5105351;28;20035;-29
2021/12/27 00:35:48;;;;;;;25.45;16.45;;;;;;;;;;5111522;28;20446;-28
2021/12/27 00:38:14;;;;;;;29.90;18.08;;;;;;;;;;5103057;28;20036;-28
2021/12/27 00:40:40;;;;;;;25.83;17.83;;;;;;;;;;5089916;28;20076;-29
2021/12/27 00:43:07;;;;;;;24.88;16.38;;;;;;;;;;5088472;28;20074;-28
2021/12/27 00:45:33;;;;;;;26.45;15.73;;;;;;;;;;5088813;28;20821;-29
2021/12/27 00:47:59;;;;;;;23.98;15.77;;;;;;;;;;5095255;28;20028;-34
2021/12/27 00:50:25;;;;;;;25.50;16.63;;;;;;;;;;5113179;28;20050;-29
2021/12/27 00:52:51;;;;;;;28.08;18.13;;;;;;;;;;5112250;28;20412;-30
2021/12/27 00:55:18;;;;;;;25.38;16.80;;;;;;;;;;5113411;28;20035;-28
2021/12/27 00:57:46;;;;;;;24.80;16.48;;;;;;;;;;5111243;28;20048;-29
2021/12/27 01:00:14;;;;;;;25.33;16.25;;;;;;;;;;5113294;28;20069;-32
2021/12/27 01:02:40;;;;;;;24.60;15.93;;;;;;;;;;5113277;28;20046;-32
2021/12/27 01:05:06;;;;;;;26.65;16.70;;;;;;;;;;5092963;28;20043;-30
2021/12/27 01:07:33;;;;;;;24.00;16.30;;;;;;;;;;5092923;28;20481;-34
2021/12/27 01:12:35;;;;;;;26.38;16.60;;;;;;;;;;5111155;28;20045;-32
2021/12/27 01:16:10;;;;;;;26.67;16.60;;;;;;;;;;5094847;28;20063;-33
2021/12/27 01:17:58;;;;;;;24.75;15.60;;;;;;;;;;5077652;28;20070;-33
2021/12/27 01:20:25;;;;;;;31.10;17.92;;;;;;;;;;5091263;28;20131;-33
2021/12/27 01:22:52;;;;;;;28.15;18.50;;;;;;;;;;5092521;28;20077;-34
2021/12/27 01:25:19;;;;;;;27.92;16.55;;;;;;;;;;5104666;28;20477;-34
2021/12/27 01:27:45;;;;;;;26.42;17.13;;;;;;;;;;5112572;28;20039;-33
2021/12/27 01:30:15;;;;;;;27.17;17.52;;;;;;;;;;5099214;28;20052;-34
2021/12/27 01:32:47;;;;;;;24.10;16.55;;;;;;;;;;5092276;28;20047;-35
2021/12/27 01:35:13;;;;;;;26.13;16.90;;;;;;;;;;5092820;28;20036;-32
2021/12/27 01:37:39;;;;;;;26.38;17.38;;;;;;;;;;5092180;28;20046;-32
2021/12/27 01:40:06;;;;;;;27.85;17.13;;;;;;;;;;5092336;28;20044;-32
2021/12/27 01:42:32;;;;;;;28.27;17.85;;;;;;;;;;5091633;28;20094;-32
2021/12/27 01:44:58;;;;;;;26.50;16.90;;;;;;;;;;5103751;28;20036;-32
2021/12/27 01:47:24;;;;;;;28.75;18.05;;;;;;;;;;5112392;28;20039;-37
2021/12/27 01:49:50;;;;;;;29.25;18.65;;;;;;;;;;5106463;28;20278;-35
2021/12/27 01:52:26;;;;;;;31.70;19.15;;;;;;;;;;5092112;28;20044;-33
2021/12/27 01:54:52;;;;;;;25.67;17.83;;;;;;;;;;5096917;28;20242;-30
2021/12/27 01:57:18;;;;;;;27.95;17.83;;;;;;;;;;5111634;28;20039;-31
2021/12/27 01:59:44;;;;;;;28.63;18.58;;;;;;;;;;5104365;28;20062;-31
2021/12/27 02:02:12;;;;;;;32.03;18.20;;;;;;;;;;5111919;28;20040;-30
2021/12/27 02:04:38;;;;;;;28.85;18.65;;;;;;;;;;5101636;28;20036;-30
2021/12/27 02:07:04;;;;;;;31.35;20.58;;;;;;;;;;5111718;28;20077;-30
2021/12/27 02:09:43;;;;;;;29.45;19.33;;;;;;;;;;5104578;28;20052;-30
2021/12/27 02:12:09;;;;;;;28.02;18.20;;;;;;;;;;5091373;28;20044;-30
2021/12/27 02:14:35;;;;;;;26.20;18.60;;;;;;;;;;5091547;28;20044;-29
2021/12/27 02:17:01;;;;;;;29.63;18.60;;;;;;;;;;5111608;28;20035;-30
2021/12/27 02:19:27;;;;;;;32.40;19.23;;;;;;;;;;5100330;28;20185;-30
2021/12/27 02:21:57;;;;;;;28.40;18.45;;;;;;;;;;5091130;28;20198;-27
2021/12/27 02:24:23;;;;;;;32.65;19.45;;;;;;;;;;5091210;28;20421;-28
2021/12/27 02:26:51;;;;;;;26.52;18.45;;;;;;;;;;5091135;28;20051;-29
2021/12/27 02:29:17;;;;;;;28.65;19.13;;;;;;;;;;5091432;28;20381;-28
2021/12/27 02:31:44;;;;;;;29.27;18.35;;;;;;;;;;5091621;28;20032;-29
2021/12/27 02:34:11;;;;;;;28.10;18.35;;;;;;;;;;5090429;28;20051;-27
2021/12/27 02:36:37;;;;;;;28.48;17.90;;;;;;;;;;5091557;28;20040;-29
2021/12/27 02:39:05;;;;;;;33.97;18.38;;;;;;;;;;5091606;28;20051;-29
2021/12/27 02:41:30;;;;;;;29.80;18.48;;;;;;;;;;5091593;28;20039;-27
2021/12/27 02:43:57;;;;;;;28.13;18.63;;;;;;;;;;5091095;28;20496;-29
2021/12/27 02:46:23;;;;;;;30.13;18.50;;;;;;;;;;5104197;28;20485;-29
2021/12/27 02:48:49;;;;;;;25.60;18.15;;;;;;;;;;5110941;28;20043;-29
2021/12/27 02:51:17;;;;;;;27.40;18.08;;;;;;;;;;5110183;28;20035;-28
2021/12/27 02:53:44;;;;;;;28.38;18.85;;;;;;;;;;5101368;28;20052;-29
2021/12/27 02:56:13;;;;;;;28.98;20.10;;;;;;;;;;5103880;28;20501;-29
2021/12/27 02:58:39;;;;;;;29.65;19.17;;;;;;;;;;5098813;28;20036;-28
2021/12/27 03:01:07;;;;;;;27.85;18.50;;;;;;;;;;5089248;28;20044;-28
2021/12/27 03:03:34;;;;;;;28.38;19.35;;;;;;;;;;5090070;28;20036;-28
2021/12/27 03:06:00;;;;;;;28.27;18.13;;;;;;;;;;5094318;28;20031;-29
2021/12/27 03:08:26;;;;;;;30.52;19.50;;;;;;;;;;5109663;28;20526;-30
2021/12/27 03:10:54;;;;;;;29.05;18.52;;;;;;;;;;5108241;28;20415;-31
2021/12/27 03:13:28;;;;;;;26.90;19.40;;;;;;;;;;5110623;28;20524;-28
2021/12/27 03:15:55;;;;;;;27.88;18.42;;;;;;;;;;5105620;28;20036;-30
2021/12/27 03:18:21;;;;;;;30.73;19.92;;;;;;;;;;5090619;28;20050;-29
2021/12/27 03:20:48;;;;;;;28.83;19.38;;;;;;;;;;5089676;28;20035;-29
2021/12/27 03:23:14;;;;;;;30.58;18.80;;;;;;;;;;5088515;28;20145;-30
2021/12/27 03:25:43;;;;;;;26.60;18.92;;;;;;;;;;5089983;28;20048;-29
2021/12/27 03:28:09;;;;;;;31.27;19.38;;;;;;;;;;5090330;28;20530;-29
2021/12/27 03:30:36;;;;;;;26.73;20.10;;;;;;;;;;5090469;28;20079;-35
2021/12/27 03:33:03;;;;;;;33.30;20.40;;;;;;;;;;5109425;28;20137;-35
2021/12/27 03:35:35;;;;;;;29.90;19.83;;;;;;;;;;5111289;28;20043;-31
2021/12/27 03:38:02;;;;;;;28.35;17.98;;;;;;;;;;5092952;28;20048;-33
2021/12/27 03:40:28;;;;;;;31.60;19.85;;;;;;;;;;5090724;28;20048;-34
2021/12/27 03:42:55;;;;;;;28.92;19.15;;;;;;;;;;5090382;28;20036;-37
2021/12/27 03:45:31;;;;;;;30.23;19.23;;;;;;;;;;5090974;28;20048;-33
2021/12/27 03:47:58;;;;;;;28.67;19.40;;;;;;;;;;5092443;28;20397;-33
2021/12/27 03:50:25;;;;;;;27.85;19.67;;;;;;;;;;5089485;28;20087;-33
2021/12/27 03:52:51;;;;;;;29.27;19.98;;;;;;;;;;5105017;28;20458;-35
2021/12/27 03:55:17;;;;;;;28.27;19.33;;;;;;;;;;5111220;28;20508;-34
2021/12/27 03:57:51;;;;;;;29.30;19.70;;;;;;;;;;5097196;28;20032;-32
2021/12/27 04:02:47;;;;;;;32.67;19.92;;;;;;;;;;5103087;28;20043;-33
2021/12/27 04:05:16;;;;;;;29.95;19.88;;;;;;;;;;5110997;28;20039;-27
2021/12/27 04:07:47;;;;;;;28.75;19.48;;;;;;;;;;5098616;28;20036;-31
2021/12/27 04:10:14;;;;;;;31.45;20.17;;;;;;;;;;5090972;28;20119;-29
2021/12/27 04:12:40;;;;;;;26.30;18.45;;;;;;;;;;5115897;22;20044;-32
2021/12/27 04:15:08;;;;;;;29.25;19.67;;;;;;;;;;5111086;28;20352;-33
2021/12/27 04:17:35;;;;;;;32.53;20.45;;;;;;;;;;5083444;28;20040;-32
2021/12/27 04:20:01;;;;;;;31.35;20.98;;;;;;;;;;5089975;28;20081;-29
2021/12/27 04:22:27;;;;;;;29.55;19.23;;;;;;;;;;5091585;28;20051;-31
2021/12/27 04:24:53;;;;;;;27.98;19.98;;;;;;;;;;5093661;28;20044;-30
2021/12/27 04:27:20;;;;;;;27.88;19.70;;;;;;;;;;5074920;28;20365;-29
2021/12/27 04:29:46;;;;;;;27.15;20.15;;;;;;;;;;5093489;28;20114;-30
2021/12/27 04:32:12;;;;;;;26.77;18.00;;;;;;;;;;5093153;28;20036;-29
2021/12/27 04:34:38;;;;;;;28.05;19.85;;;;;;;;;;5074326;28;20556;-32
2021/12/27 04:37:04;;;;;;;30.88;20.38;;;;;;;;;;5074302;28;20032;-30
2021/12/27 04:39:30;;;;;;;31.85;20.02;;;;;;;;;;5111002;28;20046;-35
2021/12/27 04:41:56;;;;;;;32.67;20.63;;;;;;;;;;5114057;28;20039;-33
2021/12/27 04:44:23;;;;;;;27.45;19.15;;;;;;;;;;5095417;28;20397;-34
2021/12/27 04:46:49;;;;;;;30.08;20.30;;;;;;;;;;5075433;28;20040;-32
2021/12/27 04:49:15;;;;;;;29.98;19.58;;;;;;;;;;5093757;28;20035;-33
2021/12/27 04:51:41;;;;;;;28.75;19.60;;;;;;;;;;5093736;28;20044;-33
2021/12/27 04:54:07;;;;;;;30.48;19.80;;;;;;;;;;5077044;28;20055;-28
2021/12/27 04:56:33;;;;;;;30.88;20.10;;;;;;;;;;5094262;28;20473;-28
2021/12/27 04:58:59;;;;;;;30.48;19.02;;;;;;;;;;5096637;28;20032;-28
2021/12/27 05:01:25;;;;;;;31.88;21.08;;;;;;;;;;5094181;28;20047;-30
2021/12/27 05:03:51;;;;;;;31.42;20.17;;;;;;;;;;5093860;28;20043;-29
2021/12/27 05:06:18;;;;;;;28.92;19.73;;;;;;;;;;5075373;28;20062;-30
2021/12/27 05:08:44;;;;;;;31.08;20.27;;;;;;;;;;5092835;28;20040;-30
2021/12/27 05:11:10;;;;;;;31.13;20.38;;;;;;;;;;5093623;28;20549;-31
2021/12/27 05:13:38;;;;;;;32.47;20.45;;;;;;;;;;5093467;28;20115;-29
2021/12/27 05:16:04;;;;;;;29.08;19.65;;;;;;;;;;5093556;28;20032;-29
2021/12/27 05:18:30;;;;;;;31.65;20.88;;;;;;;;;;5093390;28;20051;-28
2021/12/27 05:20:56;;;;;;;30.75;19.73;;;;;;;;;;5093116;28;20036;-31
2021/12/27 05:23:22;;;;;;;29.10;20.48;;;;;;;;;;5093066;28;20127;-29
2021/12/27 05:25:48;;;;;;;33.45;20.95;;;;;;;;;;5093102;28;20050;-29
2021/12/27 05:28:15;;;;;;;31.88;21.17;;;;;;;;;;5093077;28;20040;-29
2021/12/27 05:30:43;;;;;;;28.60;18.95;;;;;;;;;;5093142;28;20039;-29
2021/12/27 05:33:09;;;;;;;32.08;20.73;;;;;;;;;;5074332;28;20516;-29
2021/12/27 05:35:35;;;;;;;31.70;21.90;;;;;;;;;;5092867;28;20040;-30
2021/12/27 05:38:01;;;;;;;32.33;20.90;;;;;;;;;;5092679;28;20036;-30
2021/12/27 05:40:27;;;;;;;32.60;21.42;;;;;;;;;;5092765;28;20044;-30
2021/12/27 05:42:54;;;;;;;35.80;21.30;;;;;;;;;;5092600;28;20044;-30
2021/12/27 05:45:20;;;;;;;34.30;21.42;;;;;;;;;;5092132;28;20044;-29
2021/12/27 05:47:47;;;;;;;33.00;21.33;;;;;;;;;;5074013;28;20048;-30
2021/12/27 05:50:16;;;;;;;34.95;21.73;;;;;;;;;;5092091;28;20072;-29
2021/12/27 05:52:45;;;;;;;34.50;22.58;;;;;;;;;;5091302;28;20048;-29
2021/12/27 05:55:25;;;;;;;33.55;21.35;;;;;;;;;;5073708;28;20037;-28
2021/12/27 05:57:51;;;;;;;31.33;21.73;;;;;;;;;;5092244;28;20497;-29
2021/12/27 06:00:20;;;;;;;32.70;21.60;;;;;;;;;;5091873;28;20513;-29
2021/12/27 06:02:47;;;;;;;37.55;23.58;;;;;;;;;;5092432;28;20112;-28
2021/12/27 06:05:13;;;;;;;37.58;23.15;;;;;;;;;;5074717;28;20047;-33
2021/12/27 06:07:40;;;;;;;31.33;21.33;;;;;;;;;;5092017;28;20040;-32
2021/12/27 06:10:07;;;;;;;37.28;23.40;;;;;;;;;;5106585;28;20046;-31
2021/12/27 06:12:33;;;;;;;38.40;22.88;;;;;;;;;;5111710;28;20431;-31
2021/12/27 06:14:59;;;;;;;37.28;23.40;;;;;;;;;;5096916;28;20178;-31
2021/12/27 06:17:25;;;;;;;38.47;23.42;;;;;;;;;;5091190;28;20040;-31
2021/12/27 06:19:51;;;;;;;38.92;23.45;;;;;;;;;;5100987;28;20047;-32
2021/12/27 06:22:18;;;;;;;35.67;22.83;;;;;;;;;;5111622;28;20323;-32
2021/12/27 06:24:47;;;;;;;43.03;24.27;;;;;;;;;;5111369;28;20039;-28
2021/12/27 06:27:13;;;;;;;39.58;24.33;;;;;;;;;;5112097;28;20476;-30
2021/12/27 06:29:39;;;;;;;36.58;22.48;;;;;;;;;;5112091;28;20035;-29
2021/12/27 06:32:05;;;;;;;34.13;22.85;;;;;;;;;;5111982;28;20039;-28
2021/12/27 06:34:34;;;;;;;39.53;24.05;;;;;;;;;;5111655;28;20075;-30
2021/12/27 06:37:00;;;;;;;34.17;23.55;;;;;;;;;;5111505;28;20480;-30
2021/12/27 06:39:26;;;;;;;40.17;24.70;;;;;;;;;;5092894;28;20047;-29
2021/12/27 06:41:52;;;;;;;38.47;23.52;;;;;;;;;;5112461;28;20369;-28
2021/12/27 06:44:18;;;;;;;36.08;23.73;;;;;;;;;;5111943;28;20039;-28
2021/12/27 06:46:44;;;;;;;37.00;23.75;;;;;;;;;;5113078;28;20172;-30
2021/12/27 06:49:10;;;;;;;37.63;22.17;;;;;;;;;;5112798;28;20108;-30
2021/12/27 06:51:36;;;;;;;37.85;22.75;;;;;;;;;;5112429;28;20043;-28
2021/12/27 06:54:02;;;;;;;41.28;25.40;;;;;;;;;;5111477;28;20062;-28
2021/12/27 06:56:33;;;;;;;35.78;22.75;;;;;;;;;;5093038;28;20129;-30
2021/12/27 06:59:06;;;;;;;36.88;21.75;;;;;;;;;;5111435;28;20071;-28
2021/12/27 07:01:34;;;;;;;37.15;23.90;;;;;;;;;;5093005;28;20081;-30
2021/12/27 07:04:00;;;;;;;40.33;23.83;;;;;;;;;;5110729;28;20038;-28
2021/12/27 07:06:26;;;;;;;37.47;23.05;;;;;;;;;;5110924;28;20074;-30
2021/12/27 07:08:56;;;;;;;36.03;22.70;;;;;;;;;;5111220;28;20039;-28
2021/12/27 07:11:23;;;;;;;34.92;23.05;;;;;;;;;;5110677;28;20059;-31
2021/12/27 07:13:49;;;;;;;35.80;22.30;;;;;;;;;;5110734;28;20074;-27
2021/12/27 07:16:21;;;;;;;38.92;22.55;;;;;;;;;;5110393;28;20051;-28
2021/12/27 07:18:47;;;;;;;34.72;20.90;;;;;;;;;;5111058;28;20047;-31
2021/12/27 07:21:13;;;;;;;36.33;22.08;;;;;;;;;;5110714;28;20485;-29
2021/12/27 07:23:43;;;;;;;39.17;23.88;;;;;;;;;;5110836;28;20078;-28
2021/12/27 07:26:15;;;;;;;38.42;23.35;;;;;;;;;;5110353;28;20031;-30
2021/12/27 07:28:41;;;;;;;38.53;23.38;;;;;;;;;;5110832;28;20036;-30
2021/12/27 07:31:10;;;;;;;36.00;22.23;;;;;;;;;;5110262;28;20377;-29
2021/12/27 07:33:40;;;;;;;38.10;23.92;;;;;;;;;;5091147;28;20092;-29
2021/12/27 07:36:08;;;;;;;37.20;22.77;;;;;;;;;;5110497;28;20036;-29
2021/12/27 07:38:40;;;;;;;35.97;21.52;;;;;;;;;;5110633;28;20079;-28
2021/12/27 07:41:06;;;;;;;41.90;24.23;;;;;;;;;;5110436;28;20047;-28
2021/12/27 07:43:33;;;;;;;41.85;24.13;;;;;;;;;;5110849;28;20130;-30
2021/12/27 07:46:02;;;;;;;42.35;25.63;;;;;;;;;;5110246;28;20088;-30
2021/12/27 07:48:28;;;;;;;38.80;22.55;;;;;;;;;;5110489;28;20048;-29
2021/12/27 07:50:54;;;;;;;44.75;24.88;;;;;;;;;;5093111;28;20039;-28
2021/12/27 07:53:20;;;;;;;40.28;23.92;;;;;;;;;;5111805;28;20092;-28
2021/12/27 07:55:47;;;;;;;39.53;23.25;;;;;;;;;;5111653;28;20036;-28
2021/12/27 07:58:13;;;;;;;47.65;27.17;;;;;;;;;;5111727;28;20407;-29
2021/12/27 08:00:39;;;;;;;43.22;23.55;;;;;;;;;;5110712;28;20043;-29
2021/12/27 08:03:08;;;;;;;49.13;24.80;;;;;;;;;;5110619;28;20058;-30
2021/12/27 08:05:34;;;;;;;50.53;25.63;;;;;;;;;;5091286;28;20385;-30
2021/12/27 08:08:02;;;;;;;52.15;25.38;;;;;;;;;;5106775;28;20122;-28
2021/12/27 08:10:37;;;;;;;43.80;23.23;;;;;;;;;;5106581;28;20040;-26
2021/12/27 08:13:09;;;;;;;46.28;23.17;;;;;;;;;;5106876;28;20040;-30
2021/12/27 08:15:38;;;;;;;46.33;24.65;;;;;;;;;;5091795;28;20188;-28
2021/12/27 08:18:07;;;;;;;50.92;25.23;;;;;;;;;;5110837;28;20365;-31
2021/12/27 08:20:33;;;;;;;48.75;23.92;;;;;;;;;;5092973;28;20047;-28
2021/12/27 08:23:02;;;;;;;45.30;24.63;;;;;;;;;;5093693;28;20039;-28
2021/12/27 08:25:28;;;;;;;53.15;25.45;;;;;;;;;;5111094;28;20039;-29
2021/12/27 08:27:59;;;;;;;57.20;25.85;;;;;;;;;;5111261;28;20069;-29
2021/12/27 08:30:25;;;;;;;54.60;25.98;;;;;;;;;;5111356;28;20499;-30
2021/12/27 08:32:52;;;;;;;58.08;26.42;;;;;;;;;;5111294;28;20046;-32
2021/12/27 08:35:20;;;;;;;47.00;24.70;;;;;;;;;;5111412;28;20500;-31
2021/12/27 08:37:46;;;;;;;53.72;26.55;;;;;;;;;;5111273;28;20036;-31
2021/12/27 08:40:12;;;;;;;55.28;25.98;;;;;;;;;;5111072;28;20043;-30
2021/12/27 08:42:42;;;;;;;54.58;26.10;;;;;;;;;;5111119;28;20440;-31
2021/12/27 08:45:11;;;;;;;52.10;25.80;;;;;;;;;;5111144;28;20067;-29
2021/12/27 08:47:43;;;;;;;57.83;26.92;;;;;;;;;;5111071;28;20118;-30
2021/12/27 08:50:17;;;;;;;54.30;26.92;;;;;;;;;;5109336;28;20396;-31
2021/12/27 08:52:52;;;;;;;55.17;26.10;;;;;;;;;;5110616;28;20039;-30
2021/12/27 08:55:23;;;;;;;57.78;25.75;;;;;;;;;;5110841;28;20040;-30
2021/12/27 08:57:49;;;;;;;59.40;28.45;;;;;;;;;;5111054;28;20481;-30
2021/12/27 09:00:16;;;;;;;62.42;27.27;;;;;;;;;;5111242;28;20438;-28
2021/12/27 09:02:46;;;;;;;54.22;27.60;;;;;;;;;;5111225;28;20472;-30
2021/12/27 09:05:19;;;;;;;65.72;29.60;;;;;;;;;;5111281;28;20492;-29
2021/12/27 09:07:51;;;;;;;61.60;28.30;;;;;;;;;;5112223;28;20040;-29
2021/12/27 09:10:17;;;;;;;64.78;28.13;;;;;;;;;;5114834;28;20055;-28
2021/12/27 09:12:43;;;;;;;63.63;28.30;;;;;;;;;;5114047;28;20043;-29
2021/12/27 09:15:10;;;;;;;58.78;27.65;;;;;;;;;;5114851;28;20039;-28
2021/12/27 09:17:36;;;;;;;74.68;30.35;;;;;;;;;;5114143;28;20035;-30
2021/12/27 09:20:03;;;;;;;57.83;28.30;;;;;;;;;;5114385;28;20073;-28
2021/12/27 09:22:32;;;;;;;52.13;27.20;;;;;;;;;;5114675;28;20554;-31
2021/12/27 09:24:58;;;;;;;61.40;27.15;;;;;;;;;;5053508;28;20048;-35
2021/12/27 09:27:24;;;;;;;65.20;30.23;;;;;;;;;;5081944;28;20055;-35
2021/12/27 09:29:53;;;;;;;69.68;27.27;;;;;;;;;;5080881;28;20044;-36
2021/12/27 09:32:27;;;;;;;55.17;26.23;;;;;;;;;;5088985;28;20123;-35
2021/12/27 09:34:56;;;;;;;71.18;29.08;;;;;;;;;;5084805;28;20043;-32
2021/12/27 09:37:28;;;;;;;60.03;27.42;;;;;;;;;;5090958;28;20416;-33
2021/12/27 09:39:58;;;;;;;80.32;32.60;;;;;;;;;;5084307;28;20078;-34
2021/12/27 09:42:25;;;;;;;69.45;28.45;;;;;;;;;;5086513;28;20493;-34
2021/12/27 09:44:51;;;;;;;62.55;27.20;;;;;;;;;;5086111;28;20404;-33
2021/12/27 09:47:18;;;;;;;67.05;27.70;;;;;;;;;;5080000;28;20049;-35
2021/12/27 09:49:48;;;;;;;61.85;27.25;;;;;;;;;;5079722;28;20032;-33
2021/12/27 09:52:16;;;;;;;82.60;31.30;;;;;;;;;;5084825;28;20036;-35
2021/12/27 09:54:45;;;;;;;68.43;30.08;;;;;;;;;;5082982;28;20033;-33
2021/12/27 09:57:11;;;;;;;64.28;29.23;;;;;;;;;;5082057;28;20044;-33
2021/12/27 09:59:38;;;;;;;63.78;29.13;;;;;;;;;;5081551;28;20489;-34
2021/12/27 10:02:04;;;;;;;68.55;30.00;;;;;;;;;;5066513;28;20044;-34
2021/12/27 10:04:30;;;;;;;73.65;29.95;;;;;;;;;;5083338;28;20417;-33
2021/12/27 10:06:56;;;;;;;61.45;27.50;;;;;;;;;;5081930;28;20119;-36
2021/12/27 10:09:25;;;;;;;63.67;29.15;;;;;;;;;;5089059;28;20094;-34
2021/12/27 10:11:51;;;;;;;73.03;29.38;;;;;;;;;;5090703;28;20456;-33
2021/12/27 10:14:23;;;;;;;64.43;28.23;;;;;;;;;;5092807;28;20449;-35
2021/12/27 10:16:56;;;;;;;76.05;30.60;;;;;;;;;;5087894;28;20048;-34
2021/12/27 10:19:23;;;;;;;84.47;32.95;;;;;;;;;;5083377;28;20066;-36
2021/12/27 10:21:51;;;;;;;95.85;32.92;;;;;;;;;;5084522;28;20048;-34
2021/12/27 10:24:27;;;;;;;86.13;32.40;;;;;;;;;;5079935;28;20420;-34
2021/12/27 10:26:53;;;;;;;78.22;32.70;;;;;;;;;;5060797;28;20044;-34
2021/12/27 10:29:40;;;;;;;91.72;33.72;;;;;;;;;;5051943;28;20083;-33
2021/12/27 10:32:17;;;;;;;88.40;30.98;;;;;;;;;;5070733;28;20036;-32
2021/12/27 10:34:47;;;;;;;70.55;29.95;;;;;;;;;;5108013;28;20086;-33
2021/12/27 10:37:13;;;;;;;81.60;29.27;;;;;;;;;;5111309;28;20446;-34
2021/12/27 10:39:43;;;;;;;62.42;27.20;;;;;;;;;;5076042;28;20047;-34
2021/12/27 10:42:10;;;;;;;74.25;30.15;;;;;;;;;;5083128;28;20202;-33
2021/12/27 10:44:36;;;;;;;73.28;28.27;;;;;;;;;;5069474;28;20043;-34
2021/12/27 10:47:08;;;;;;;73.82;28.77;;;;;;;;;;5081396;28;20048;-33
2021/12/27 10:49:49;;;;;;;68.18;29.10;;;;;;;;;;5082203;28;20048;-34
2021/12/27 10:52:15;;;;;;;62.80;28.10;;;;;;;;;;5076668;28;20591;-36
2021/12/27 10:54:41;;;;;;;76.40;28.98;;;;;;;;;;5088871;28;20029;-34
2021/12/27 10:57:07;;;;;;;77.78;29.40;;;;;;;;;;5075731;28;20119;-31
2021/12/27 10:59:33;;;;;;;57.00;27.33;;;;;;;;;;5086155;28;20120;-31
2021/12/27 11:02:10;;;;;;;70.68;28.40;;;;;;;;;;5081109;28;20576;-30
2021/12/27 11:04:36;;;;;;;65.95;27.77;;;;;;;;;;5094074;28;20036;-32
2021/12/27 11:07:03;;;;;;;78.97;29.13;;;;;;;;;;5083749;28;20043;-30
2021/12/27 11:09:31;;;;;;;72.95;29.80;;;;;;;;;;5081587;28;20066;-29
2021/12/27 11:12:03;;;;;;;81.38;32.00;;;;;;;;;;5076956;28;20414;-30
2021/12/27 11:14:34;;;;;;;81.57;32.05;;;;;;;;;;5077102;28;20059;-30
2021/12/27 11:17:00;;;;;;;74.43;29.33;;;;;;;;;;5077487;28;20032;-30
2021/12/27 11:19:26;;;;;;;79.78;30.58;;;;;;;;;;5073714;28;20121;-30
2021/12/27 11:21:56;;;;;;;89.20;34.10;;;;;;;;;;5082725;28;20048;-31
2021/12/27 11:24:22;;;;;;;96.25;33.53;;;;;;;;;;5093663;28;20512;-30
2021/12/27 11:26:50;;;;;;;79.53;31.40;;;;;;;;;;5089729;28;20043;-29
2021/12/27 11:29:20;;;;;;;105.28;33.55;;;;;;;;;;5088585;28;20043;-30
2021/12/27 11:31:48;;;;;;;84.05;33.10;;;;;;;;;;5070412;28;20040;-30
2021/12/27 11:34:18;;;;;;;94.53;32.97;;;;;;;;;;5082329;28;20039;-31
2021/12/27 11:36:49;;;;;;;102.07;33.47;;;;;;;;;;5067509;28;20048;-30
2021/12/27 11:39:19;;;;;;;81.80;32.15;;;;;;;;;;5095940;28;20043;-30
2021/12/27 11:41:56;;;;;;;92.28;33.00;;;;;;;;;;5091398;28;20131;-30
2021/12/27 11:44:32;;;;;;;84.07;31.77;;;;;;;;;;5091031;28;20044;-31
2021/12/27 11:46:58;;;;;;;84.93;34.53;;;;;;;;;;5058145;28;20058;-30
2021/12/27 11:50:03;;;;;;;86.30;33.17;;;;;;;;;;5081219;28;20123;-29
2021/12/27 11:52:31;;;;;;;94.68;33.33;;;;;;;;;;5077531;28;20463;-30
2021/12/27 11:55:12;;;;;;;90.65;35.25;;;;;;;;;;5086709;28;20062;-29
2021/12/27 11:57:38;;;;;;;88.00;30.38;;;;;;;;;;5083684;28;20089;-31
2021/12/27 12:00:23;;;;;;;77.35;31.05;;;;;;;;;;5089431;28;20043;-34
2021/12/27 12:02:54;;;;;;;76.20;29.75;;;;;;;;;;5086448;28;20051;-33
2021/12/27 12:05:45;;;;;;;84.78;31.50;;;;;;;;;;5091819;28;20047;-32
2021/12/27 12:08:15;;;;;;;90.38;32.90;;;;;;;;;;5088833;28;20153;-36
2021/12/27 12:10:51;;;;;;;94.53;32.50;;;;;;;;;;5090013;28;20040;-34
2021/12/27 12:13:19;;;;;;;86.63;33.03;;;;;;;;;;5083794;28;20508;-32
2021/12/27 12:15:55;;;;;;;75.93;32.10;;;;;;;;;;5091761;28;20054;-35
2021/12/27 12:18:30;;;;;;;68.97;28.90;;;;;;;;;;5087569;28;20043;-32
2021/12/27 12:20:56;;;;;;;78.28;31.05;;;;;;;;;;5103031;28;20039;-35
2021/12/27 12:23:22;;;;;;;67.95;29.60;;;;;;;;;;5094214;28;20040;-33
2021/12/27 12:25:56;;;;;;;66.28;27.85;;;;;;;;;;5100819;28;20049;-34
2021/12/27 12:28:25;;;;;;;;;;;;;;;;;;5110457;28;20079;-34
2021/12/27 12:30:54;;;;;;;57.75;26.92;;;;;;;;;;5109548;28;19919;-34
2021/12/27 12:33:30;;;;;;;58.42;25.63;;;;;;;;;;5103304;28;20128;-33
2021/12/27 12:36:05;;;;;;;56.05;27.55;;;;;;;;;;5081637;28;20400;-34
2021/12/27 12:38:38;;;;;;;54.67;26.77;;;;;;;;;;5086260;28;20430;-36
2021/12/27 12:44:26;;;;;;;48.60;24.90;;;;;;;;;;5084398;28;20350;-35
2021/12/27 12:46:52;;;;;;;51.55;22.30;;;;;;;;;;5095407;28;20582;-33
2021/12/27 12:49:20;;;;;;;47.92;23.67;;;;;;;;;;5068669;28;20032;-35
2021/12/27 12:51:50;;;;;;;43.95;22.30;;;;;;;;;;5099459;28;20068;-30
2021/12/27 12:54:16;;;;;;;46.80;22.90;;;;;;;;;;5065156;28;20051;-32
2021/12/27 12:56:42;;;;;;;46.35;23.75;;;;;;;;;;5082583;28;20441;-32
2021/12/27 12:59:17;;;;;;;39.85;20.52;;;;;;;;;;5081946;28;20093;-32
2021/12/27 13:01:53;;;;;;;41.17;22.45;;;;;;;;;;5079280;28;20045;-32
2021/12/27 13:04:37;;;;;;;44.97;21.88;;;;;;;;;;5064470;28;20051;-31
2021/12/27 13:07:06;;;;;;;;;;;;;;;;;;5087351;28;20040;-33
2021/12/27 13:09:51;;;;;;;39.78;19.55;;;;;;;;;;5078932;28;19916;-32
2021/12/27 13:12:24;;;;;;;39.30;21.52;;;;;;;;;;5079607;28;20486;-31
2021/12/27 13:14:50;;;;;;;41.17;21.27;;;;;;;;;;5078206;28;20500;-31
2021/12/27 13:17:27;;;;;;;41.67;20.88;;;;;;;;;;5090968;28;20036;-30
2021/12/27 13:19:59;;;;;;;36.58;20.67;;;;;;;;;;5091968;28;20127;-32
2021/12/27 13:22:44;;;;;;;39.20;19.83;;;;;;;;;;5108932;28;20145;-32
2021/12/27 13:25:11;;;;;;;37.88;21.30;;;;;;;;;;5112227;28;20050;-32
2021/12/27 13:27:37;;;;;;;35.85;20.80;;;;;;;;;;5092642;28;20119;-32
2021/12/27 13:30:15;;;;;;;35.50;20.23;;;;;;;;;;5092283;28;20071;-32
2021/12/27 13:32:50;;;;;;;37.25;19.60;;;;;;;;;;5092679;28;20093;-31
2021/12/27 13:35:18;;;;;;;38.95;20.55;;;;;;;;;;5056333;28;20091;-32
2021/12/27 13:37:50;;;;;;;33.97;19.73;;;;;;;;;;5081391;28;20036;-32
2021/12/27 13:40:17;;;;;;;40.83;20.45;;;;;;;;;;5078265;28;20043;-33
2021/12/27 13:42:43;;;;;;;40.47;21.38;;;;;;;;;;5084641;28;20127;-31
2021/12/27 13:45:10;;;;;;;35.92;20.45;;;;;;;;;;5087828;28;20047;-31
2021/12/27 13:47:36;;;;;;;41.20;21.50;;;;;;;;;;5092391;28;20421;-30
2021/12/27 13:50:15;;;;;;;38.78;19.38;;;;;;;;;;5092094;28;20047;-30
2021/12/27 13:52:44;;;;;;;38.22;21.13;;;;;;;;;;5092322;28;20043;-30
2021/12/27 13:55:30;;;;;;;36.40;21.05;;;;;;;;;;5092066;28;20047;-31
2021/12/27 13:57:57;;;;;;;35.50;19.85;;;;;;;;;;5092561;28;20042;-31
2021/12/27 14:00:36;;;;;;;36.25;20.05;;;;;;;;;;5092373;28;20066;-30
2021/12/27 14:03:05;;;;;;;39.40;20.10;;;;;;;;;;5092147;28;20075;-30
2021/12/27 14:05:33;;;;;;;34.90;19.58;;;;;;;;;;5089372;28;20447;-30
2021/12/27 14:08:10;;;;;;;33.35;19.83;;;;;;;;;;5090835;28;20396;-30
2021/12/27 14:10:56;;;;;;;38.03;20.65;;;;;;;;;;5088751;28;20075;-31
2021/12/27 14:13:27;;;;;;;33.53;19.25;;;;;;;;;;5090810;28;20078;-30
2021/12/27 14:15:53;;;;;;;33.55;19.17;;;;;;;;;;5091530;28;20067;-32
2021/12/27 14:18:27;;;;;;;36.75;20.90;;;;;;;;;;5091672;28;20481;-30
2021/12/27 14:21:03;;;;;;;36.05;19.13;;;;;;;;;;5091591;28;20477;-30
2021/12/27 14:23:35;;;;;;;31.80;19.42;;;;;;;;;;5091381;28;20594;-32
2021/12/27 14:26:22;;;;;;;37.17;19.20;;;;;;;;;;5091403;28;20534;-31
2021/12/27 14:29:14;;;;;;;41.03;21.05;;;;;;;;;;5092032;28;20044;-30
2021/12/27 14:31:40;;;;;;;37.28;19.20;;;;;;;;;;5091882;28;20039;-30
2021/12/27 14:34:06;;;;;;;37.00;19.17;;;;;;;;;;5091450;28;20039;-31
2021/12/27 14:36:32;;;;;;;37.78;20.75;;;;;;;;;;5072784;28;20489;-30